Latest Weather Observations for Arlington Reef

IDQ60801

Issued at 1:02 am EST Thursday 30 January 2020 (issued every 10 minutes, with the page automatically refreshed every 10 minutes)

About weather observations | Map of weather stations | Latest weather observations for QLD | Other Formats
Station Details ID: 200879 Name: ARLINGTON REEF Lat: -16.72 Lon: 146.11 Height: 0.0 m
Data from the previous 72 hours. | See also: Recent months at Arlington Reef
Date/Time
EST
Temp
°C
App
Temp
°C
Dew
Point
°C
Rel
Hum
%
Delta-T
°C
Wind Press
QNH
hPa
Press
MSL
hPa
Rain since
9am
mm
Dir  Spd
km/h
Gust
km/h
Spd
kts
Gust
kts
30/01:00am - - - - - E 22 26 12 14 1009.1 1009.1 -
30/12:30am - - - - - E 24 28 13 15 1009.6 1009.6 -
30/12:00am - - - - - E 22 26 12 14 1010.1 1010.1 -
 
Date/Time
EST
Temp
°C
App
Temp
°C
Dew
Point
°C
Rel
Hum
%
Delta-T
°C
Wind Press
QNH
hPa
Press
MSL
hPa
Rain since
9am
mm
Dir  Spd
km/h
Gust
km/h
Spd
kts
Gust
kts
29/11:30pm - - - - - ENE 22 26 12 14 1010.4 1010.4 -
29/11:00pm - - - - - ENE 19 22 10 12 1010.6 1010.6 -
29/10:30pm - - - - - E 19 20 10 11 1010.5 1010.5 -
29/10:00pm - - - - - E 17 20 9 11 1010.4 1010.4 -
29/09:30pm - - - - - E 19 20 10 11 1010.0 1010.0 -
29/09:00pm - - - - - E 17 20 9 11 1009.9 1009.9 -
29/08:30pm - - - - - E 15 17 8 9 1009.8 1009.8 -
29/08:00pm - - - - - E 11 15 6 8 1010.0 1010.0 -
29/07:30pm - - - - - E 11 13 6 7 1009.9 1009.9 -
29/07:00pm - - - - - ENE 7 9 4 5 1009.8 1009.8 -
29/06:30pm - - - - - NE 7 9 4 5 1009.5 1009.5 -
29/06:00pm - - - - - NE 4 6 2 3 1009.0 1009.0 -
29/05:30pm - - - - - ENE 7 9 4 5 1007.9 1007.9 -
29/05:00pm - - - - - NE 7 11 4 6 1007.9 1007.9 -
29/04:30pm - - - - - NNE 7 9 4 5 1008.1 1008.1 -
29/04:00pm - - - - - N 9 11 5 6 1008.2 1008.2 -
29/03:30pm - - - - - ENE 6 6 3 3 1008.1 1008.1 -
29/03:00pm - - - - - N 6 7 3 4 1008.4 1008.4 -
29/02:30pm - - - - - N 6 7 3 4 1008.7 1008.7 -
29/02:00pm - - - - - N 9 13 5 7 1009.1 1009.1 -
29/01:30pm - - - - - N 11 13 6 7 1009.2 1009.2 -
29/01:00pm - - - - - N 9 11 5 6 1009.4 1009.4 -
29/11:00am - - - - - N 20 24 11 13 1010.8 1010.8 -
29/10:30am - - - - - N 17 20 9 11 1010.8 1010.8 -
29/10:00am - - - - - N 28 35 15 19 1011.0 1011.0 -
29/09:30am - - - - - NNE 17 28 9 15 1011.2 1011.2 -
29/09:00am - - - - - NNE 28 33 15 18 1009.8 1009.8 -
29/08:31am - - - - - NE 28 46 15 25 1009.0 1009.0 -
29/08:30am - - - - - NE 26 44 14 24 1009.2 1009.2 -
29/08:00am - - - - - ENE 20 24 11 13 1009.2 1009.2 -
29/07:30am - - - - - NE 22 28 12 15 1008.5 1008.5 -
29/07:00am - - - - - NE 24 30 13 16 1008.4 1008.4 -
29/06:30am - - - - - ENE 17 20 9 11 1008.0 1008.0 -
29/06:00am - - - - - ENE 20 24 11 13 1007.6 1007.6 -
29/05:30am - - - - - NE 30 37 16 20 1007.2 1007.2 -
29/05:00am - - - - - ENE 28 37 15 20 1006.5 1006.5 -
29/04:30am - - - - - NE 33 43 18 23 1006.4 1006.4 -
29/04:13am - - - - - N 17 37 9 20 1006.6 1006.6 -
29/04:00am - - - - - N 13 17 7 9 1006.6 1006.6 -
29/03:30am - - - - - ENE 32 39 17 21 1006.2 1006.2 -
29/03:00am - - - - - NE 33 39 18 21 1006.0 1006.0 -
29/02:30am - - - - - NE 28 30 15 16 1006.4 1006.4 -
29/02:00am - - - - - ENE 26 32 14 17 1006.6 1006.6 -
29/01:30am - - - - - NNE 24 28 13 15 1007.0 1007.0 -
29/01:00am - - - - - N 26 33 14 18 1007.2 1007.2 -
29/12:30am - - - - - NNE 19 26 10 14 1007.6 1007.6 -
29/12:00am - - - - - NE 22 26 12 14 1008.3 1008.3 -
 
Date/Time
EST
Temp
°C
App
Temp
°C
Dew
Point
°C
Rel
Hum
%
Delta-T
°C
Wind Press
QNH
hPa
Press
MSL
hPa
Rain since
9am
mm
Dir  Spd
km/h
Gust
km/h
Spd
kts
Gust
kts
28/11:30pm - - - - - NNE 35 56 19 30 1008.3 1008.3 -
28/11:25pm - - - - - N 46 65 25 35 1008.3 1008.3 -
28/11:16pm - - - - - NNE 37 61 20 33 1007.7 1007.7 -
28/11:15pm - - - - - NNE 35 56 19 30 1008.0 1008.0 -
28/11:00pm - - - - - NE 32 35 17 19 1007.9 1007.9 -
28/10:30pm - - - - - NE 28 35 15 19 1007.9 1007.9 -
28/10:00pm - - - - - NNE 33 37 18 20 1007.5 1007.5 -
28/09:30pm - - - - - NNE 32 39 17 21 1007.3 1007.3 -
28/09:00pm - - - - - NNE 32 37 17 20 1007.4 1007.4 -
28/08:30pm - - - - - NNE 28 33 15 18 1007.1 1007.1 -
28/08:00pm - - - - - NE 26 30 14 16 1006.6 1006.6 -
28/07:30pm - - - - - NE 22 26 12 14 1006.7 1006.7 -
28/07:00pm - - - - - NE 20 24 11 13 1006.6 1006.6 -
28/06:30pm - - - - - NE 19 24 10 13 1006.3 1006.3 -
28/06:00pm - - - - - NNE 19 20 10 11 1005.8 1005.8 -
28/05:30pm - - - - - NNE 15 20 8 11 1005.2 1005.2 -
28/05:00pm - - - - - NNE 9 13 5 7 1004.8 1004.8 -
28/04:30pm - - - - - NNE 11 13 6 7 1004.2 1004.2 -
28/04:00pm - - - - - N 7 11 4 6 1004.8 1004.8 -
28/03:30pm - - - - - N 9 13 5 7 1005.4 1005.4 -
28/03:00pm - - - - - NNW 7 13 4 7 1005.8 1005.8 -
28/02:30pm - - - - - NW 7 11 4 6 1006.1 1006.1 -
28/02:00pm - - - - - WSW 4 4 2 2 1006.1 1006.1 -
28/01:30pm - - - - - WNW 7 9 4 5 1006.6 1006.6 -
28/01:00pm - - - - - CALM 0 0 0 0 1006.5 1006.5 -
28/12:30pm - - - - - WNW 11 13 6 7 1006.9 1006.9 -
28/12:00pm - - - - - NW 22 33 12 18 1007.6 1007.6 -
28/11:30am - - - - - NE 22 26 12 14 1007.5 1007.5 -
28/11:00am - - - - - NE 20 26 11 14 1007.8 1007.8 -
28/10:30am - - - - - NE 24 30 13 16 1007.9 1007.9 -
28/10:00am - - - - - NNE 22 28 12 15 1008.0 1008.0 -
28/09:30am - - - - - NNE 24 26 13 14 1007.8 1007.8 -
28/09:00am - - - - - NE 24 28 13 15 1007.7 1007.7 -
28/08:30am - - - - - NE 24 28 13 15 1007.5 1007.5 -
28/08:00am - - - - - NE 24 28 13 15 1006.9 1006.9 -
28/07:30am - - - - - NE 26 30 14 16 1006.8 1006.8 -
28/07:00am - - - - - NE 28 32 15 17 1006.6 1006.6 -
28/06:30am - - - - - NE 17 26 9 14 1006.2 1006.2 -
28/06:00am - - - - - NNE 13 17 7 9 1006.0 1006.0 -
28/05:30am - - - - - NE 15 17 8 9 1005.6 1005.6 -
28/05:00am - - - - - NE 9 13 5 7 1005.4 1005.4 -
28/04:30am - - - - - NNE 6 9 3 5 1005.6 1005.6 -
28/04:00am - - - - - NNW 4 6 2 3 1005.6 1005.6 -
28/03:30am - - - - - NW 7 11 4 6 1005.6 1005.6 -
28/03:00am - - - - - WNW 13 17 7 9 1005.6 1005.6 -
28/02:30am - - - - - NW 15 19 8 10 1005.7 1005.7 -
28/02:00am - - - - - NNW 9 11 5 6 1005.8 1005.8 -
28/01:30am - - - - - NNW 9 11 5 6 1006.0 1006.0 -
28/01:00am - - - - - N 9 11 5 6 1006.7 1006.7 -
28/12:30am - - - - - NNW 11 15 6 8 1007.6 1007.6 -
28/12:00am - - - - - NNW 13 17 7 9 1008.3 1008.3 -
 
Date/Time
EST
Temp
°C
App
Temp
°C
Dew
Point
°C
Rel
Hum
%
Delta-T
°C
Wind Press
QNH
hPa
Press
MSL
hPa
Rain since
9am
mm
Dir  Spd
km/h
Gust
km/h
Spd
kts
Gust
kts
27/11:30pm - - - - - NW 17 20 9 11 1008.8 1008.8 -
27/11:00pm - - - - - NW 15 17 8 9 1008.7 1008.7 -
27/10:30pm - - - - - NW 20 24 11 13 1008.5 1008.5 -
27/10:00pm - - - - - WNW 22 26 12 14 1008.3 1008.3 -
27/09:30pm - - - - - N 17 20 9 11 1008.0 1008.0 -
27/09:00pm - - - - - NNW 24 32 13 17 1008.4 1008.4 -
27/08:30pm - - - - - N 41 52 22 28 1007.7 1007.7 -
27/08:28pm - - - - - N 32 52 17 28 1007.5 1007.5 -
27/08:00pm - - - - - N 24 28 13 15 1006.9 1006.9 -
27/07:30pm - - - - - - - - - - 1006.9 1006.9 -
27/07:00pm - - - - - NNE 13 17 7 9 1006.4 1006.4 -
27/06:30pm - - - - - N 11 15 6 8 1006.5 1006.5 -
27/06:00pm - - - - - N 11 15 6 8 1006.0 1006.0 -
27/05:30pm - - - - - NNE 9 15 5 8 1005.7 1005.7 -
27/05:00pm - - - - - NNE 7 9 4 5 1005.4 1005.4 -
27/04:30pm - - - - - NE 9 13 5 7 1005.1 1005.1 -
27/04:00pm - - - - - NE 15 17 8 9 1005.0 1005.0 -
27/03:30pm - - - - - NNE 13 19 7 10 1005.3 1005.3 -
27/03:00pm - - - - - NNE 13 19 7 10 1005.7 1005.7 -
27/02:30pm - - - - - NNE 17 19 9 10 1005.7 1005.7 -
27/02:00pm - - - - - N 13 17 7 9 1006.2 1006.2 -
27/01:30pm - - - - - N 11 17 6 9 1006.7 1006.7 -
27/01:00pm - - - - - NNW 9 13 5 7 1007.1 1007.1 -
27/12:30pm - - - - - NNW 9 11 5 6 1007.5 1007.5 -
27/12:00pm - - - - - NNE 7 11 4 6 1007.7 1007.7 -
27/11:30am - - - - - NE 6 7 3 4 1008.2 1008.2 -
27/11:00am - - - - - ENE 6 7 3 4 1008.5 1008.5 -
27/10:30am - - - - - ENE 2 4 1 2 1008.7 1008.7 -
27/10:00am - - - - - CALM 0 2 0 1 1008.8 1008.8 -
27/09:30am - - - - - CALM 0 0 0 0 1009.0 1009.0 -
27/09:00am - - - - - NW 4 7 2 4 1009.1 1009.1 -
27/08:30am - - - - - WNW 6 7 3 4 1009.0 1009.0 -
27/08:00am - - - - - WSW 6 9 3 5 1008.8 1008.8 -
27/07:30am - - - - - WSW 9 13 5 7 1008.6 1008.6 -
27/07:00am - - - - - W 9 13 5 7 1008.1 1008.1 -
27/06:30am - - - - - WNW 9 13 5 7 1007.5 1007.5 -
27/06:00am - - - - - NW 9 11 5 6 1007.5 1007.5 -
27/05:30am - - - - - W 20 24 11 13 1007.7 1007.7 -
27/05:00am - - - - - WNW 11 15 6 8 1007.5 1007.5 -
27/04:30am - - - - - NNW 13 17 7 9 1007.2 1007.2 -
27/04:00am - - - - - N 20 24 11 13 1006.8 1006.8 -
27/03:30am - - - - - N 30 35 16 19 1007.0 1007.0 -
27/03:00am - - - - - NW 35 50 19 27 1007.2 1007.2 -
27/02:40am - - - - - NNW 20 35 11 19 1007.2 1007.2 -
27/02:30am - - - - - NNE 9 11 5 6 1006.9 1006.9 -
27/02:00am - - - - - NE 11 13 6 7 1007.0 1007.0 -
27/01:30am - - - - - NE 11 15 6 8 1007.3 1007.3 -

Other formats

Comma delimited format used in spreadsheet applications
http://www.bom.gov.au/fwo/IDQ60801/IDQ60801.94284.axf

JavaScript Object Notation format (JSON) in row-major order
http://www.bom.gov.au/fwo/IDQ60801/IDQ60801.94284.json

Data quality

Most of these data are generated automatically and are frequently updated. Quality checks on data are not normally performed. It is possible for incorrect values to appear. Refer to information at About Latest Weather Observations and please check the disclaimer before using these data.